Hauptseite
METAR-TAF:

METAR-TAF

Flughäfen :

St Athan, Wales

Breite: 51-24N, Länge: 003-26W, Höhe: 50 m

Beobachtung

Neuester Wetterbericht von vor 1 Stunde und 12 Minuten, um 21:50 UTC
Wind 4 kt aus Ost/Südost
Temperatur 14°C
Luftfeuchtigkeit 82%
Luftdruck 1012 hPa
Sichtweite 10 km oder mehr

METAR: EGDX 212150Z AUTO 11004KT 9999 OVC090/// 14/11 Q1012

Zeit: 00:02 (23:02 UTC)

Prognose

Neuester Wetterbericht von vor 9 Stunden und 31 Minuten, um 13:31 UTC
Gültige Prognose vom 21 um 15 UTC bis 21 um 24 UTC
Wind 10 kt aus Ost/Südost
Sichtweite 10 km oder mehr
keine Wolken unter 1500 m und keine Kumulonimbus oder Gewitterwolken

TAF: EGDX 211331Z 2115/2124 12010KT CAVOK

Wetterbeobachtungen und Prognosen von mehr als 4000 Flughäfen (METAR und TAF Bericht).

Die verfügbaren Stationen werden durch gelbe und rote Markierungen auf der Karte dargestellt.

Führen Sie die Maus auf sie, um den Namen der Station zu sehen.

Darauf klicken, um die Beobachtung von Wetterbeobachtungen und Prognosen zu sehen.

Um die Karte zu ändern : klicken Sie auf den grünen Tasten mit einem schwarzen Kreuz Zum Vergrößern, auf den grünen Button mit einem Gedankenstrich zu verkleinern, oder auf die grünen Pfeile für benachbarte Karten.


METAR-TAF: